sensor_id;sensor_type;location;lat;lon;timestamp;temperature;humidity
23568;DHT22;11962;50.838;4.430;2022-12-20T00:00:51;13.80;99.90
23568;DHT22;11962;50.838;4.430;2022-12-20T00:03:17;13.80;99.90
23568;DHT22;11962;50.838;4.430;2022-12-20T00:05:43;13.90;99.90
23568;DHT22;11962;50.838;4.430;2022-12-20T00:08:09;13.80;99.90
23568;DHT22;11962;50.838;4.430;2022-12-20T00:10:39;13.90;99.90
23568;DHT22;11962;50.838;4.430;2022-12-20T00:13:05;13.90;99.90
23568;DHT22;11962;50.838;4.430;2022-12-20T00:15:31;13.80;99.90
23568;DHT22;11962;50.838;4.430;2022-12-20T00:17:58;13.80;99.90
23568;DHT22;11962;50.838;4.430;2022-12-20T00:20:25;13.90;99.90
23568;DHT22;11962;50.838;4.430;2022-12-20T00:22:51;13.80;99.90
23568;DHT22;11962;50.838;4.430;2022-12-20T00:25:17;13.70;99.90
23568;DHT22;11962;50.838;4.430;2022-12-20T00:27:44;13.70;99.90
23568;DHT22;11962;50.838;4.430;2022-12-20T00:30:10;13.80;99.90
23568;DHT22;11962;50.838;4.430;2022-12-20T00:35:55;13.80;99.90
23568;DHT22;11962;50.838;4.430;2022-12-20T00:38:22;13.80;99.90
23568;DHT22;11962;50.838;4.430;2022-12-20T00:40:57;13.70;99.90
23568;DHT22;11962;50.838;4.430;2022-12-20T00:43:23;13.70;99.90
23568;DHT22;11962;50.838;4.430;2022-12-20T00:45:49;13.70;99.90
23568;DHT22;11962;50.838;4.430;2022-12-20T00:48:14;13.70;99.90
23568;DHT22;11962;50.838;4.430;2022-12-20T00:50:40;13.70;99.90
23568;DHT22;11962;50.838;4.430;2022-12-20T00:53:05;13.70;99.90
23568;DHT22;11962;50.838;4.430;2022-12-20T00:55:34;13.70;99.90
23568;DHT22;11962;50.838;4.430;2022-12-20T00:58:00;13.80;99.90
23568;DHT22;11962;50.838;4.430;2022-12-20T01:00:25;13.80;99.90
23568;DHT22;11962;50.838;4.430;2022-12-20T01:03:13;13.80;99.90
23568;DHT22;11962;50.838;4.430;2022-12-20T01:05:39;13.80;99.90
23568;DHT22;11962;50.838;4.430;2022-12-20T01:08:05;13.60;99.90
23568;DHT22;11962;50.838;4.430;2022-12-20T01:10:31;13.70;99.90
23568;DHT22;11962;50.838;4.430;2022-12-20T01:12:58;13.70;99.90
23568;DHT22;11962;50.838;4.430;2022-12-20T01:15:24;13.70;99.90
23568;DHT22;11962;50.838;4.430;2022-12-20T01:17:49;13.70;99.90
23568;DHT22;11962;50.838;4.430;2022-12-20T01:20:16;13.70;99.90
23568;DHT22;11962;50.838;4.430;2022-12-20T01:22:41;13.70;99.90
23568;DHT22;11962;50.838;4.430;2022-12-20T01:25:07;13.70;99.90
23568;DHT22;11962;50.838;4.430;2022-12-20T01:27:33;13.60;99.90
23568;DHT22;11962;50.838;4.430;2022-12-20T01:29:58;13.50;99.90
23568;DHT22;11962;50.838;4.430;2022-12-20T01:35:14;13.40;99.90
23568;DHT22;11962;50.838;4.430;2022-12-20T01:37:40;13.40;99.90
23568;DHT22;11962;50.838;4.430;2022-12-20T01:40:06;13.40;99.90
23568;DHT22;11962;50.838;4.430;2022-12-20T01:42:34;13.30;99.90
23568;DHT22;11962;50.838;4.430;2022-12-20T01:45:01;13.40;99.90
23568;DHT22;11962;50.838;4.430;2022-12-20T01:47:30;13.30;99.90
23568;DHT22;11962;50.838;4.430;2022-12-20T01:50:22;13.30;99.90
23568;DHT22;11962;50.838;4.430;2022-12-20T01:52:48;13.30;99.90
23568;DHT22;11962;50.838;4.430;2022-12-20T01:55:18;13.20;99.90
23568;DHT22;11962;50.838;4.430;2022-12-20T01:57:55;13.20;99.90
23568;DHT22;11962;50.838;4.430;2022-12-20T02:00:23;13.20;99.90
23568;DHT22;11962;50.838;4.430;2022-12-20T02:02:49;13.10;99.90
23568;DHT22;11962;50.838;4.430;2022-12-20T02:05:18;13.10;99.90
23568;DHT22;11962;50.838;4.430;2022-12-20T02:07:45;13.10;99.90
23568;DHT22;11962;50.838;4.430;2022-12-20T02:10:13;13.10;99.90
23568;DHT22;11962;50.838;4.430;2022-12-20T02:12:45;13.00;99.90
23568;DHT22;11962;50.838;4.430;2022-12-20T02:15:34;13.00;99.90
23568;DHT22;11962;50.838;4.430;2022-12-20T02:18:29;13.00;99.90
23568;DHT22;11962;50.838;4.430;2022-12-20T02:31:29;13.10;99.90
23568;DHT22;11962;50.838;4.430;2022-12-20T02:33:58;13.20;99.90
23568;DHT22;11962;50.838;4.430;2022-12-20T02:36:25;13.10;99.90
23568;DHT22;11962;50.838;4.430;2022-12-20T02:38:50;13.10;99.90
23568;DHT22;11962;50.838;4.430;2022-12-20T02:41:18;13.20;99.90
23568;DHT22;11962;50.838;4.430;2022-12-20T02:43:47;13.20;99.90
23568;DHT22;11962;50.838;4.430;2022-12-20T02:46:33;13.20;99.90
23568;DHT22;11962;50.838;4.430;2022-12-20T02:49:02;13.20;99.90
23568;DHT22;11962;50.838;4.430;2022-12-20T02:51:31;13.30;99.90
23568;DHT22;11962;50.838;4.430;2022-12-20T02:53:58;13.30;99.90
23568;DHT22;11962;50.838;4.430;2022-12-20T02:56:30;13.30;99.90
23568;DHT22;11962;50.838;4.430;2022-12-20T02:59:22;13.30;99.90
23568;DHT22;11962;50.838;4.430;2022-12-20T03:01:52;13.30;99.90
23568;DHT22;11962;50.838;4.430;2022-12-20T03:04:24;13.30;99.90
23568;DHT22;11962;50.838;4.430;2022-12-20T03:07:13;13.40;99.90
23568;DHT22;11962;50.838;4.430;2022-12-20T03:09:41;13.40;99.90
23568;DHT22;11962;50.838;4.430;2022-12-20T03:12:07;13.30;99.90
23568;DHT22;11962;50.838;4.430;2022-12-20T03:14:34;13.30;99.90
23568;DHT22;11962;50.838;4.430;2022-12-20T03:17:00;13.40;99.90
23568;DHT22;11962;50.838;4.430;2022-12-20T03:19:51;13.40;99.90
23568;DHT22;11962;50.838;4.430;2022-12-20T03:22:17;13.40;99.90
23568;DHT22;11962;50.838;4.430;2022-12-20T03:24:42;13.40;99.90
23568;DHT22;11962;50.838;4.430;2022-12-20T03:27:17;13.40;99.90
23568;DHT22;11962;50.838;4.430;2022-12-20T03:29:43;13.50;99.90
23568;DHT22;11962;50.838;4.430;2022-12-20T03:32:11;13.50;99.90
23568;DHT22;11962;50.838;4.430;2022-12-20T03:38:14;13.60;99.90
23568;DHT22;11962;50.838;4.430;2022-12-20T03:40:40;13.50;99.90
23568;DHT22;11962;50.838;4.430;2022-12-20T03:43:14;13.50;99.90
23568;DHT22;11962;50.838;4.430;2022-12-20T03:45:40;13.50;99.90
23568;DHT22;11962;50.838;4.430;2022-12-20T03:48:06;13.50;99.90
23568;DHT22;11962;50.838;4.430;2022-12-20T03:50:41;13.50;99.90
23568;DHT22;11962;50.838;4.430;2022-12-20T03:53:06;13.50;99.90
23568;DHT22;11962;50.838;4.430;2022-12-20T03:55:32;13.40;99.90
23568;DHT22;11962;50.838;4.430;2022-12-20T03:57:58;13.30;99.90
23568;DHT22;11962;50.838;4.430;2022-12-20T04:00:23;13.30;99.90
23568;DHT22;11962;50.838;4.430;2022-12-20T04:02:49;13.30;99.90
23568;DHT22;11962;50.838;4.430;2022-12-20T04:05:15;13.30;99.90
23568;DHT22;11962;50.838;4.430;2022-12-20T04:07:41;13.30;99.90
23568;DHT22;11962;50.838;4.430;2022-12-20T04:10:07;13.30;99.90
23568;DHT22;11962;50.838;4.430;2022-12-20T04:12:33;13.30;99.90
23568;DHT22;11962;50.838;4.430;2022-12-20T04:14:58;13.30;99.90
23568;DHT22;11962;50.838;4.430;2022-12-20T04:17:24;13.30;99.90
23568;DHT22;11962;50.838;4.430;2022-12-20T04:20:13;13.30;99.90
23568;DHT22;11962;50.838;4.430;2022-12-20T04:22:49;13.30;99.90
23568;DHT22;11962;50.838;4.430;2022-12-20T04:25:17;13.20;99.90
23568;DHT22;11962;50.838;4.430;2022-12-20T04:27:43;13.20;99.90
23568;DHT22;11962;50.838;4.430;2022-12-20T04:30:10;13.20;99.90
23568;DHT22;11962;50.838;4.430;2022-12-20T04:32:36;13.20;99.90
23568;DHT22;11962;50.838;4.430;2022-12-20T04:35:08;13.30;99.90
23568;DHT22;11962;50.838;4.430;2022-12-20T04:37:33;13.20;99.90
23568;DHT22;11962;50.838;4.430;2022-12-20T04:39:59;13.30;99.90
23568;DHT22;11962;50.838;4.430;2022-12-20T04:42:25;13.20;99.90
23568;DHT22;11962;50.838;4.430;2022-12-20T04:44:50;13.20;99.90
23568;DHT22;11962;50.838;4.430;2022-12-20T04:47:16;13.20;99.90
23568;DHT22;11962;50.838;4.430;2022-12-20T04:49:48;13.10;99.90
23568;DHT22;11962;50.838;4.430;2022-12-20T04:52:14;13.10;99.90
23568;DHT22;11962;50.838;4.430;2022-12-20T04:54:58;13.00;99.90
23568;DHT22;11962;50.838;4.430;2022-12-20T04:57:23;13.00;99.90
23568;DHT22;11962;50.838;4.430;2022-12-20T04:59:49;12.90;99.90
23568;DHT22;11962;50.838;4.430;2022-12-20T05:02:15;12.90;99.90
23568;DHT22;11962;50.838;4.430;2022-12-20T05:04:40;12.90;99.90
23568;DHT22;11962;50.838;4.430;2022-12-20T05:07:26;12.90;99.90
23568;DHT22;11962;50.838;4.430;2022-12-20T05:09:52;13.00;99.90
23568;DHT22;11962;50.838;4.430;2022-12-20T05:12:18;13.00;99.90
23568;DHT22;11962;50.838;4.430;2022-12-20T05:14:43;13.00;99.90
23568;DHT22;11962;50.838;4.430;2022-12-20T05:17:09;12.90;99.90
23568;DHT22;11962;50.838;4.430;2022-12-20T05:19:35;12.90;99.90
23568;DHT22;11962;50.838;4.430;2022-12-20T05:25:22;13.00;99.90
23568;DHT22;11962;50.838;4.430;2022-12-20T05:28:06;12.90;99.90
23568;DHT22;11962;50.838;4.430;2022-12-20T05:30:32;12.90;99.90
23568;DHT22;11962;50.838;4.430;2022-12-20T05:32:58;12.80;99.90
23568;DHT22;11962;50.838;4.430;2022-12-20T05:35:24;12.90;99.90
23568;DHT22;11962;50.838;4.430;2022-12-20T05:37:49;12.90;99.90
23568;DHT22;11962;50.838;4.430;2022-12-20T05:40:15;12.90;99.90
23568;DHT22;11962;50.838;4.430;2022-12-20T05:42:42;12.90;99.90
23568;DHT22;11962;50.838;4.430;2022-12-20T05:45:08;12.90;99.90
23568;DHT22;11962;50.838;4.430;2022-12-20T05:47:34;13.00;99.90
23568;DHT22;11962;50.838;4.430;2022-12-20T05:50:00;13.00;99.90
23568;DHT22;11962;50.838;4.430;2022-12-20T05:59:25;12.80;99.90
23568;DHT22;11962;50.838;4.430;2022-12-20T06:01:51;12.80;99.90
23568;DHT22;11962;50.838;4.430;2022-12-20T06:04:16;12.80;99.90
23568;DHT22;11962;50.838;4.430;2022-12-20T06:06:42;12.80;99.90
23568;DHT22;11962;50.838;4.430;2022-12-20T06:09:07;12.80;99.90
23568;DHT22;11962;50.838;4.430;2022-12-20T06:11:33;12.80;99.90
23568;DHT22;11962;50.838;4.430;2022-12-20T06:13:59;12.80;99.90
23568;DHT22;11962;50.838;4.430;2022-12-20T06:16:24;12.80;99.90
23568;DHT22;11962;50.838;4.430;2022-12-20T06:18:50;12.80;99.90
23568;DHT22;11962;50.838;4.430;2022-12-20T06:21:16;12.80;99.90
23568;DHT22;11962;50.838;4.430;2022-12-20T06:23:42;12.90;99.90
23568;DHT22;11962;50.838;4.430;2022-12-20T06:26:08;12.90;99.90
23568;DHT22;11962;50.838;4.430;2022-12-20T06:28:34;13.00;99.90
23568;DHT22;11962;50.838;4.430;2022-12-20T06:31:08;13.00;99.90
23568;DHT22;11962;50.838;4.430;2022-12-20T06:33:34;13.00;99.90
23568;DHT22;11962;50.838;4.430;2022-12-20T06:36:24;13.10;99.90
23568;DHT22;11962;50.838;4.430;2022-12-20T06:38:49;13.20;99.90
23568;DHT22;11962;50.838;4.430;2022-12-20T06:41:15;13.30;99.90
23568;DHT22;11962;50.838;4.430;2022-12-20T06:43:41;13.30;99.90
23568;DHT22;11962;50.838;4.430;2022-12-20T06:46:06;13.40;99.90
23568;DHT22;11962;50.838;4.430;2022-12-20T06:48:32;13.40;99.90
23568;DHT22;11962;50.838;4.430;2022-12-20T06:50:58;13.50;99.90
23568;DHT22;11962;50.838;4.430;2022-12-20T06:53:24;13.50;99.90
23568;DHT22;11962;50.838;4.430;2022-12-20T06:55:50;13.60;99.90
23568;DHT22;11962;50.838;4.430;2022-12-20T06:58:16;13.70;99.90
23568;DHT22;11962;50.838;4.430;2022-12-20T07:00:42;13.70;99.90
23568;DHT22;11962;50.838;4.430;2022-12-20T07:03:08;13.70;99.90
23568;DHT22;11962;50.838;4.430;2022-12-20T07:05:33;13.80;99.90
23568;DHT22;11962;50.838;4.430;2022-12-20T07:14:34;13.80;99.90
23568;DHT22;11962;50.838;4.430;2022-12-20T07:17:00;13.70;99.90
23568;DHT22;11962;50.838;4.430;2022-12-20T07:19:25;13.70;99.90
23568;DHT22;11962;50.838;4.430;2022-12-20T07:21:51;13.60;99.90
23568;DHT22;11962;50.838;4.430;2022-12-20T07:24:17;13.60;99.90
23568;DHT22;11962;50.838;4.430;2022-12-20T07:26:43;13.60;99.90
23568;DHT22;11962;50.838;4.430;2022-12-20T07:29:11;13.60;99.90
23568;DHT22;11962;50.838;4.430;2022-12-20T07:31:36;13.60;99.90
23568;DHT22;11962;50.838;4.430;2022-12-20T07:34:02;13.50;99.90
23568;DHT22;11962;50.838;4.430;2022-12-20T07:36:34;13.40;99.90
23568;DHT22;11962;50.838;4.430;2022-12-20T07:39:00;13.40;99.90
23568;DHT22;11962;50.838;4.430;2022-12-20T07:41:25;13.40;99.90
23568;DHT22;11962;50.838;4.430;2022-12-20T07:43:51;13.30;99.90
23568;DHT22;11962;50.838;4.430;2022-12-20T07:46:17;13.30;99.90
23568;DHT22;11962;50.838;4.430;2022-12-20T07:48:43;13.30;99.90
23568;DHT22;11962;50.838;4.430;2022-12-20T07:51:18;13.20;99.90
23568;DHT22;11962;50.838;4.430;2022-12-20T07:57:39;13.00;99.90
23568;DHT22;11962;50.838;4.430;2022-12-20T08:00:06;12.90;99.90
23568;DHT22;11962;50.838;4.430;2022-12-20T08:02:46;12.80;99.90
23568;DHT22;11962;50.838;4.430;2022-12-20T08:05:13;12.80;99.90
23568;DHT22;11962;50.838;4.430;2022-12-20T08:07:41;12.80;99.90
23568;DHT22;11962;50.838;4.430;2022-12-20T08:10:08;12.80;99.90
23568;DHT22;11962;50.838;4.430;2022-12-20T08:12:36;12.80;99.90
23568;DHT22;11962;50.838;4.430;2022-12-20T08:15:03;12.90;99.90
23568;DHT22;11962;50.838;4.430;2022-12-20T08:17:28;12.80;99.90
23568;DHT22;11962;50.838;4.430;2022-12-20T08:19:54;12.80;99.90
23568;DHT22;11962;50.838;4.430;2022-12-20T08:26:19;12.90;99.90
23568;DHT22;11962;50.838;4.430;2022-12-20T08:28:45;12.80;99.90
23568;DHT22;11962;50.838;4.430;2022-12-20T08:31:11;12.80;99.90
23568;DHT22;11962;50.838;4.430;2022-12-20T08:33:37;12.90;99.90
23568;DHT22;11962;50.838;4.430;2022-12-20T08:36:07;12.90;99.90
23568;DHT22;11962;50.838;4.430;2022-12-20T08:38:56;12.90;99.90
23568;DHT22;11962;50.838;4.430;2022-12-20T08:41:22;12.90;99.90
23568;DHT22;11962;50.838;4.430;2022-12-20T08:43:48;13.00;99.90
23568;DHT22;11962;50.838;4.430;2022-12-20T08:46:13;13.00;99.90
23568;DHT22;11962;50.838;4.430;2022-12-20T08:48:39;13.10;99.90
23568;DHT22;11962;50.838;4.430;2022-12-20T08:51:08;13.20;99.90
23568;DHT22;11962;50.838;4.430;2022-12-20T08:53:40;13.20;99.90
23568;DHT22;11962;50.838;4.430;2022-12-20T08:56:15;13.20;99.90
23568;DHT22;11962;50.838;4.430;2022-12-20T08:58:42;13.20;99.90
23568;DHT22;11962;50.838;4.430;2022-12-20T09:01:17;13.30;99.90
23568;DHT22;11962;50.838;4.430;2022-12-20T09:03:43;13.40;99.90
23568;DHT22;11962;50.838;4.430;2022-12-20T09:06:19;13.40;99.90
23568;DHT22;11962;50.838;4.430;2022-12-20T09:12:41;13.50;99.90
23568;DHT22;11962;50.838;4.430;2022-12-20T09:15:10;13.40;99.90
23568;DHT22;11962;50.838;4.430;2022-12-20T09:17:36;13.50;99.90
23568;DHT22;11962;50.838;4.430;2022-12-20T09:20:03;13.70;99.90
23568;DHT22;11962;50.838;4.430;2022-12-20T09:22:29;13.70;99.90
23568;DHT22;11962;50.838;4.430;2022-12-20T09:28:17;13.80;99.90
23568;DHT22;11962;50.838;4.430;2022-12-20T09:30:43;13.80;99.90
23568;DHT22;11962;50.838;4.430;2022-12-20T09:33:08;13.80;99.90
23568;DHT22;11962;50.838;4.430;2022-12-20T09:35:34;13.90;99.90
23568;DHT22;11962;50.838;4.430;2022-12-20T09:38:15;13.90;99.90
23568;DHT22;11962;50.838;4.430;2022-12-20T09:40:46;13.90;99.90
23568;DHT22;11962;50.838;4.430;2022-12-20T09:43:14;13.80;99.90
23568;DHT22;11962;50.838;4.430;2022-12-20T09:45:41;13.80;99.90
23568;DHT22;11962;50.838;4.430;2022-12-20T09:48:16;13.70;99.90
23568;DHT22;11962;50.838;4.430;2022-12-20T09:50:57;13.70;99.90
23568;DHT22;11962;50.838;4.430;2022-12-20T09:56:27;13.60;99.90
23568;DHT22;11962;50.838;4.430;2022-12-20T09:59:07;13.50;99.90
23568;DHT22;11962;50.838;4.430;2022-12-20T10:01:36;13.40;99.90
23568;DHT22;11962;50.838;4.430;2022-12-20T10:04:11;13.40;99.90
23568;DHT22;11962;50.838;4.430;2022-12-20T10:26:25;13.40;99.90
23568;DHT22;11962;50.838;4.430;2022-12-20T10:28:51;13.40;99.90
23568;DHT22;11962;50.838;4.430;2022-12-20T10:31:17;13.40;99.90
23568;DHT22;11962;50.838;4.430;2022-12-20T10:33:44;13.40;99.90
23568;DHT22;11962;50.838;4.430;2022-12-20T10:36:24;13.40;99.90
23568;DHT22;11962;50.838;4.430;2022-12-20T10:45:03;13.50;99.90
23568;DHT22;11962;50.838;4.430;2022-12-20T10:47:39;13.60;99.90
23568;DHT22;11962;50.838;4.430;2022-12-20T10:50:13;13.60;99.90
23568;DHT22;11962;50.838;4.430;2022-12-20T10:52:40;13.50;99.90
23568;DHT22;11962;50.838;4.430;2022-12-20T10:55:34;13.50;99.90
23568;DHT22;11962;50.838;4.430;2022-12-20T10:58:50;13.50;99.90
23568;DHT22;11962;50.838;4.430;2022-12-20T11:06:16;13.40;99.90
23568;DHT22;11962;50.838;4.430;2022-12-20T11:08:43;13.30;99.90
23568;DHT22;11962;50.838;4.430;2022-12-20T11:11:15;13.30;99.90
23568;DHT22;11962;50.838;4.430;2022-12-20T11:13:42;13.20;99.90
23568;DHT22;11962;50.838;4.430;2022-12-20T11:16:35;13.30;99.90
23568;DHT22;11962;50.838;4.430;2022-12-20T11:22:20;13.20;99.90
23568;DHT22;11962;50.838;4.430;2022-12-20T11:25:07;13.30;99.90
23568;DHT22;11962;50.838;4.430;2022-12-20T11:30:41;13.40;99.90
23568;DHT22;11962;50.838;4.430;2022-12-20T11:33:13;13.40;99.90
23568;DHT22;11962;50.838;4.430;2022-12-20T11:41:58;13.60;99.90
23568;DHT22;11962;50.838;4.430;2022-12-20T11:52:46;13.50;99.90
23568;DHT22;11962;50.838;4.430;2022-12-20T11:55:25;13.50;99.90
23568;DHT22;11962;50.838;4.430;2022-12-20T11:58:21;13.50;99.90
23568;DHT22;11962;50.838;4.430;2022-12-20T12:00:55;13.50;99.90
23568;DHT22;11962;50.838;4.430;2022-12-20T12:03:31;13.50;99.90
23568;DHT22;11962;50.838;4.430;2022-12-20T12:06:26;13.40;99.90
23568;DHT22;11962;50.838;4.430;2022-12-20T12:09:07;13.40;99.90
23568;DHT22;11962;50.838;4.430;2022-12-20T12:11:41;13.40;99.90
23568;DHT22;11962;50.838;4.430;2022-12-20T12:14:16;13.40;99.90
23568;DHT22;11962;50.838;4.430;2022-12-20T12:16:49;13.40;99.90
23568;DHT22;11962;50.838;4.430;2022-12-20T12:19:17;13.30;99.90
23568;DHT22;11962;50.838;4.430;2022-12-20T12:21:55;13.30;99.90
23568;DHT22;11962;50.838;4.430;2022-12-20T12:24:34;13.30;99.90
23568;DHT22;11962;50.838;4.430;2022-12-20T12:27:03;13.20;99.90
23568;DHT22;11962;50.838;4.430;2022-12-20T12:29:31;13.20;99.90
23568;DHT22;11962;50.838;4.430;2022-12-20T12:32:28;13.20;99.90
23568;DHT22;11962;50.838;4.430;2022-12-20T12:38:15;13.10;99.90
23568;DHT22;11962;50.838;4.430;2022-12-20T12:43:34;13.00;99.90
23568;DHT22;11962;50.838;4.430;2022-12-20T12:46:12;13.00;99.90
23568;DHT22;11962;50.838;4.430;2022-12-20T12:48:55;13.00;99.90
23568;DHT22;11962;50.838;4.430;2022-12-20T12:51:26;13.00;99.90
23568;DHT22;11962;50.838;4.430;2022-12-20T12:54:00;12.90;99.90
23568;DHT22;11962;50.838;4.430;2022-12-20T12:56:41;12.80;99.90
23568;DHT22;11962;50.838;4.430;2022-12-20T13:04:28;12.80;99.90
23568;DHT22;11962;50.838;4.430;2022-12-20T13:06:56;12.70;99.90
23568;DHT22;11962;50.838;4.430;2022-12-20T13:11:55;12.70;99.90
23568;DHT22;11962;50.838;4.430;2022-12-20T13:16:47;12.70;99.90
23568;DHT22;11962;50.838;4.430;2022-12-20T13:21:45;12.60;99.90
23568;DHT22;11962;50.838;4.430;2022-12-20T13:27:30;12.80;99.90
23568;DHT22;11962;50.838;4.430;2022-12-20T13:43:40;12.80;99.90
23568;DHT22;11962;50.838;4.430;2022-12-20T13:48:45;12.80;99.90
23568;DHT22;11962;50.838;4.430;2022-12-20T13:53:59;12.80;99.90
23568;DHT22;11962;50.838;4.430;2022-12-20T13:56:46;12.90;99.90
23568;DHT22;11962;50.838;4.430;2022-12-20T13:59:23;12.90;99.90
23568;DHT22;11962;50.838;4.430;2022-12-20T14:01:54;12.90;99.90
23568;DHT22;11962;50.838;4.430;2022-12-20T14:04:20;12.90;99.90
23568;DHT22;11962;50.838;4.430;2022-12-20T14:06:57;12.80;99.90
23568;DHT22;11962;50.838;4.430;2022-12-20T14:09:37;12.80;99.90
23568;DHT22;11962;50.838;4.430;2022-12-20T14:12:21;12.80;99.90
23568;DHT22;11962;50.838;4.430;2022-12-20T14:14:49;12.80;99.90
23568;DHT22;11962;50.838;4.430;2022-12-20T14:17:25;12.80;99.90
23568;DHT22;11962;50.838;4.430;2022-12-20T14:20:04;12.80;99.90
23568;DHT22;11962;50.838;4.430;2022-12-20T14:22:31;12.80;99.90
23568;DHT22;11962;50.838;4.430;2022-12-20T14:24:58;12.80;99.90
23568;DHT22;11962;50.838;4.430;2022-12-20T14:27:28;12.90;99.90
23568;DHT22;11962;50.838;4.430;2022-12-20T14:29:56;12.90;99.90
23568;DHT22;11962;50.838;4.430;2022-12-20T14:32:22;12.90;99.90
23568;DHT22;11962;50.838;4.430;2022-12-20T14:34:48;12.90;99.90
23568;DHT22;11962;50.838;4.430;2022-12-20T14:42:41;13.00;99.90
23568;DHT22;11962;50.838;4.430;2022-12-20T14:47:58;13.10;99.90
23568;DHT22;11962;50.838;4.430;2022-12-20T14:50:30;13.10;99.90
23568;DHT22;11962;50.838;4.430;2022-12-20T14:52:57;13.10;99.90
23568;DHT22;11962;50.838;4.430;2022-12-20T14:55:34;13.10;99.90
23568;DHT22;11962;50.838;4.430;2022-12-20T14:58:05;13.00;99.90
23568;DHT22;11962;50.838;4.430;2022-12-20T15:00:33;13.00;99.90
23568;DHT22;11962;50.838;4.430;2022-12-20T15:03:00;13.00;99.90
23568;DHT22;11962;50.838;4.430;2022-12-20T15:08:32;12.90;99.90
23568;DHT22;11962;50.838;4.430;2022-12-20T15:13:37;12.80;99.90
23568;DHT22;11962;50.838;4.430;2022-12-20T15:16:11;12.80;99.90
23568;DHT22;11962;50.838;4.430;2022-12-20T15:18:38;12.80;99.90
23568;DHT22;11962;50.838;4.430;2022-12-20T15:21:29;12.80;99.90
23568;DHT22;11962;50.838;4.430;2022-12-20T15:23:57;12.80;99.90
23568;DHT22;11962;50.838;4.430;2022-12-20T15:26:25;12.80;99.90
23568;DHT22;11962;50.838;4.430;2022-12-20T15:29:15;12.70;99.90
23568;DHT22;11962;50.838;4.430;2022-12-20T15:31:41;12.70;99.90
23568;DHT22;11962;50.838;4.430;2022-12-20T15:34:37;12.70;99.90
23568;DHT22;11962;50.838;4.430;2022-12-20T15:37:04;12.70;99.90
23568;DHT22;11962;50.838;4.430;2022-12-20T15:39:31;12.70;99.90
23568;DHT22;11962;50.838;4.430;2022-12-20T15:42:00;12.70;99.90
23568;DHT22;11962;50.838;4.430;2022-12-20T15:44:29;12.70;99.90
23568;DHT22;11962;50.838;4.430;2022-12-20T15:46:56;12.70;99.90
23568;DHT22;11962;50.838;4.430;2022-12-20T15:49:29;12.70;99.90
23568;DHT22;11962;50.838;4.430;2022-12-20T15:51:55;12.70;99.90
23568;DHT22;11962;50.838;4.430;2022-12-20T15:54:29;12.70;99.90
23568;DHT22;11962;50.838;4.430;2022-12-20T15:56:57;12.70;99.90
23568;DHT22;11962;50.838;4.430;2022-12-20T15:59:43;12.70;99.90
23568;DHT22;11962;50.838;4.430;2022-12-20T16:02:24;12.70;99.90
23568;DHT22;11962;50.838;4.430;2022-12-20T16:04:50;12.70;99.90
23568;DHT22;11962;50.838;4.430;2022-12-20T16:07:16;12.70;99.90
23568;DHT22;11962;50.838;4.430;2022-12-20T16:09:42;12.70;99.90
23568;DHT22;11962;50.838;4.430;2022-12-20T16:12:13;12.60;99.90
23568;DHT22;11962;50.838;4.430;2022-12-20T16:18:02;12.60;99.90
23568;DHT22;11962;50.838;4.430;2022-12-20T16:20:28;12.60;99.90
23568;DHT22;11962;50.838;4.430;2022-12-20T16:22:54;12.50;99.90
23568;DHT22;11962;50.838;4.430;2022-12-20T16:25:30;12.60;99.90
23568;DHT22;11962;50.838;4.430;2022-12-20T16:27:56;12.60;99.90
23568;DHT22;11962;50.838;4.430;2022-12-20T16:30:23;12.60;99.90
23568;DHT22;11962;50.838;4.430;2022-12-20T16:32:49;12.60;99.90
23568;DHT22;11962;50.838;4.430;2022-12-20T16:35:29;12.60;99.90
23568;DHT22;11962;50.838;4.430;2022-12-20T16:37:57;12.60;99.90
23568;DHT22;11962;50.838;4.430;2022-12-20T16:40:26;12.60;99.90
23568;DHT22;11962;50.838;4.430;2022-12-20T16:43:12;12.60;99.90
23568;DHT22;11962;50.838;4.430;2022-12-20T16:45:40;12.60;99.90
23568;DHT22;11962;50.838;4.430;2022-12-20T16:48:06;12.60;99.90
23568;DHT22;11962;50.838;4.430;2022-12-20T16:50:32;12.50;99.90
23568;DHT22;11962;50.838;4.430;2022-12-20T16:52:58;12.60;99.90
23568;DHT22;11962;50.838;4.430;2022-12-20T16:55:25;12.60;99.90
23568;DHT22;11962;50.838;4.430;2022-12-20T16:57:52;12.60;99.90
23568;DHT22;11962;50.838;4.430;2022-12-20T17:00:23;12.60;99.90
23568;DHT22;11962;50.838;4.430;2022-12-20T17:02:50;12.60;99.90
23568;DHT22;11962;50.838;4.430;2022-12-20T17:05:27;12.50;99.90
23568;DHT22;11962;50.838;4.430;2022-12-20T17:07:54;12.60;99.90
23568;DHT22;11962;50.838;4.430;2022-12-20T17:10:21;12.60;99.90
23568;DHT22;11962;50.838;4.430;2022-12-20T17:12:47;12.60;99.90
23568;DHT22;11962;50.838;4.430;2022-12-20T17:15:31;12.60;99.90
23568;DHT22;11962;50.838;4.430;2022-12-20T17:17:57;12.60;99.90
23568;DHT22;11962;50.838;4.430;2022-12-20T17:20:23;12.50;99.90
23568;DHT22;11962;50.838;4.430;2022-12-20T17:22:54;12.60;99.90
23568;DHT22;11962;50.838;4.430;2022-12-20T17:25:24;12.60;99.90
23568;DHT22;11962;50.838;4.430;2022-12-20T17:27:50;12.60;99.90
23568;DHT22;11962;50.838;4.430;2022-12-20T17:30:16;12.60;99.90
23568;DHT22;11962;50.838;4.430;2022-12-20T17:32:43;12.60;99.90
23568;DHT22;11962;50.838;4.430;2022-12-20T17:35:29;12.60;99.90
23568;DHT22;11962;50.838;4.430;2022-12-20T17:37:56;12.60;99.90
23568;DHT22;11962;50.838;4.430;2022-12-20T17:40:24;12.60;99.90
23568;DHT22;11962;50.838;4.430;2022-12-20T17:42:50;12.60;99.90
23568;DHT22;11962;50.838;4.430;2022-12-20T17:47:49;12.60;99.90
23568;DHT22;11962;50.838;4.430;2022-12-20T17:50:17;12.60;99.90
23568;DHT22;11962;50.838;4.430;2022-12-20T17:52:44;12.60;99.90
23568;DHT22;11962;50.838;4.430;2022-12-20T17:55:22;12.60;99.90
23568;DHT22;11962;50.838;4.430;2022-12-20T17:57:48;12.60;99.90
23568;DHT22;11962;50.838;4.430;2022-12-20T18:00:24;12.60;99.90
23568;DHT22;11962;50.838;4.430;2022-12-20T18:02:50;12.70;99.90
23568;DHT22;11962;50.838;4.430;2022-12-20T18:05:16;12.70;99.90
23568;DHT22;11962;50.838;4.430;2022-12-20T18:07:42;12.60;99.90
23568;DHT22;11962;50.838;4.430;2022-12-20T18:10:08;12.60;99.90
23568;DHT22;11962;50.838;4.430;2022-12-20T18:12:37;12.60;99.90
23568;DHT22;11962;50.838;4.430;2022-12-20T18:15:04;12.70;99.90
23568;DHT22;11962;50.838;4.430;2022-12-20T18:17:32;12.60;99.90
23568;DHT22;11962;50.838;4.430;2022-12-20T18:19:57;12.70;99.90
23568;DHT22;11962;50.838;4.430;2022-12-20T18:22:23;12.70;99.90
23568;DHT22;11962;50.838;4.430;2022-12-20T18:24:49;12.60;99.90
23568;DHT22;11962;50.838;4.430;2022-12-20T18:27:14;12.60;99.90
23568;DHT22;11962;50.838;4.430;2022-12-20T18:29:44;12.60;99.90
23568;DHT22;11962;50.838;4.430;2022-12-20T18:32:10;12.70;99.90
23568;DHT22;11962;50.838;4.430;2022-12-20T18:34:36;12.70;99.90